Terminal Aerodrome Forecast
Issued by NWS Raleigh/Durham, NC

Home | Current Version | Previous Version | Text Only | Print | Product List | Glossary On
Versions: 1 2 3 4 5 6 7 8 9 10 11 12 13 14 15 16 17 18 19 20 21 22 23
000
FTUS42 KRAH 241721
TAFRDU
TAF
KRDU 241721Z 2418/2518 25007KT P6SM BKN045
     FM242000 24008KT P6SM VCTS SCT035CB BKN060
      TEMPO 2421/2501 VRB18G30KT 2SM TSRA BR SCT016 BKN028CB
     FM250200 24004KT P6SM BKN100
     FM251100 33005KT P6SM SCT060=

USA.gov is the U.S. government's official web portal to all federal, state and local government web resources and services.